Time;durP1;ratioP1;P1;durP2;ratioP2;P2;SDS_P1;SDS_P2;PMS_P1;PMS_P2;Temp;Humidity;BMP_temperature;BMP_pressure;BME280_temperature;BME280_humidity;BME280_pressure;Samples;Min_cycle;Max_cycle;Signal;HPM_P1;HPM_P2
2023/09/16 00:01:40;;;;;;;;;;;22.80;85.90;;;22.94;51.57;98502.50;4949778;28;123927;-88
2023/09/16 00:04:08;;;;;;;;;;;22.70;86.10;;;22.93;51.83;98498.06;4934570;28;124009;-88
2023/09/16 00:06:35;;;;;;;;;;;22.80;86.30;;;22.94;51.72;98498.84;4919363;28;118919;-88
2023/09/16 00:09:01;;;;;;;;;;;22.70;86.50;;;22.93;51.61;98498.06;4931731;28;118819;-88
2023/09/16 00:11:29;;;;;;;;;;;22.70;86.70;;;22.94;51.67;98493.22;4938702;28;124003;-90
2023/09/16 00:13:58;;;;;;;;;;;22.70;86.70;;;22.93;51.62;98498.06;4938332;28;123896;-89
2023/09/16 00:16:24;;;;;;;;;;;22.70;86.90;;;22.92;51.88;98504.91;4938539;28;119523;-90
2023/09/16 00:18:50;;;;;;;;;;;22.60;86.90;;;22.93;51.82;98502.91;4927508;28;118847;-89
2023/09/16 00:21:17;;;;;;;;;;;22.60;87.10;;;22.92;51.75;98504.91;4932111;28;124141;-88
2023/09/16 00:23:44;;;;;;;;;;;22.60;87.20;;;22.93;51.76;98502.91;4926145;28;123956;-89
2023/09/16 00:26:10;;;;;;;;;;;22.60;87.30;;;22.93;51.77;98502.91;4948931;28;119377;-89
2023/09/16 00:28:36;;;;;;;;;;;22.60;87.40;;;22.92;51.77;98495.66;4924636;28;118868;-89
2023/09/16 00:31:03;;;;;;;;;;;22.60;87.50;;;22.89;51.87;98502.91;4964157;28;123213;-88
2023/09/16 00:33:29;;;;;;;;;;;22.60;87.60;;;22.86;51.85;98500.91;4946995;28;124188;-89
2023/09/16 00:35:56;;;;;;;;;;;22.60;87.70;;;22.83;51.89;98498.84;4954674;28;117790;-90
2023/09/16 00:38:23;;;;;;;;;;;22.60;87.80;;;22.80;52.00;98496.84;4935570;28;118824;-88
2023/09/16 00:40:49;;;;;;;;;;;22.60;87.90;;;22.79;52.18;98497.28;4928664;28;122802;-89
2023/09/16 00:43:16;;;;;;;;;;;22.50;88.00;;;22.77;52.13;98500.47;4923826;28;124240;-89
2023/09/16 00:45:42;;;;;;;;;;;22.50;88.00;;;22.75;52.18;98491.63;4958472;28;120460;-90
2023/09/16 00:48:10;;;;;;;;;;;22.50;88.10;;;22.72;52.30;98498.06;4948032;28;119911;-89
2023/09/16 00:50:36;;;;;;;;;;;22.50;88.20;;;22.69;52.45;98490.41;4919797;28;124170;-89
2023/09/16 00:53:03;;;;;;;;;;;22.50;88.40;;;22.68;52.30;98497.25;4934017;28;122999;-90
2023/09/16 00:55:29;;;;;;;;;;;22.40;88.40;;;22.65;52.32;98492.44;4932197;28;119612;-91
2023/09/16 00:57:56;;;;;;;;;;;22.40;88.50;;;22.63;52.56;98497.66;4929528;28;118856;-89
2023/09/16 01:00:26;;;;;;;;;;;22.40;88.60;;;22.60;52.71;98504.09;4927693;28;122621;-91
2023/09/16 01:02:54;;;;;;;;;;;22.30;88.60;;;22.60;52.46;98502.09;4926142;28;123871;-90
2023/09/16 01:05:20;;;;;;;;;;;22.30;88.70;;;22.57;52.64;98502.88;4932270;28;118713;-89
2023/09/16 01:07:46;;;;;;;;;;;22.30;88.80;;;22.54;52.60;98502.84;4948409;28;118845;-91
2023/09/16 01:10:14;;;;;;;;;;;22.30;88.90;;;22.53;52.43;98502.06;4925747;28;124328;-88
2023/09/16 01:12:41;;;;;;;;;;;22.30;89.00;;;22.50;52.34;98498.03;4942397;28;124268;-89
2023/09/16 01:15:09;;;;;;;;;;;22.20;89.00;;;22.47;52.57;98498.84;4957999;28;119696;-89
2023/09/16 01:17:48;;;;;;;;;;;22.20;89.10;;;22.44;52.67;98493.22;4929725;28;118601;-88
2023/09/16 01:20:17;;;;;;;;;;;22.20;89.20;;;22.41;52.84;98491.19;4935355;28;124948;-88
2023/09/16 01:22:46;;;;;;;;;;;22.20;89.30;;;22.39;52.96;98502.03;4920199;28;123764;-88
2023/09/16 01:25:16;;;;;;;;;;;22.20;89.40;;;22.36;52.94;98500.03;4927379;28;119482;-90
2023/09/16 01:27:42;;;;;;;;;;;22.10;89.50;;;22.33;53.01;98504.44;4948385;28;118368;-91
2023/09/16 01:30:13;;;;;;;;;;;22.10;89.60;;;22.31;53.23;98497.59;4945668;28;124907;-88
2023/09/16 01:32:47;;;;;;;;;;;22.10;89.80;;;22.28;53.33;98502.03;4933096;28;123774;-89
2023/09/16 01:35:14;;;;;;;;;;;22.00;90.00;;;22.25;53.61;98497.19;4925078;28;120294;-89
2023/09/16 01:37:43;;;;;;;;;;;22.00;90.00;;;22.22;53.41;98493.16;4949338;28;119905;-90
2023/09/16 01:40:16;;;;;;;;;;;22.00;90.10;;;22.20;53.46;98489.13;4929687;28;125058;-91
2023/09/16 01:42:48;;;;;;;;;;;22.00;90.20;;;22.17;53.58;98499.16;4916532;28;123957;-91
2023/09/16 01:45:21;;;;;;;;;;;21.90;90.20;;;22.15;53.61;98498.72;4941082;28;120233;-92
2023/09/16 01:47:48;;;;;;;;;;;21.90;90.30;;;22.16;53.47;98499.53;4928441;28;118791;-91
2023/09/16 01:50:14;;;;;;;;;;;21.90;90.40;;;22.13;53.73;98494.72;4929449;28;124458;-92
2023/09/16 01:52:41;;;;;;;;;;;21.90;90.40;;;22.10;53.75;98498.31;4930841;28;123895;-90
2023/09/16 01:55:07;;;;;;;;;;;21.80;90.40;;;22.08;53.68;98497.91;4934680;28;119407;-89
2023/09/16 01:57:34;;;;;;;;;;;21.90;90.80;;;22.06;53.91;98507.56;4924095;28;118540;-91
2023/09/16 02:00:00;;;;;;;;;;;21.80;90.60;;;22.05;54.01;98505.94;4920492;28;124054;-91
2023/09/16 02:02:26;;;;;;;;;;;21.80;90.60;;;22.02;54.09;98506.72;4929039;28;122778;-90
2023/09/16 02:04:53;;;;;;;;;;;21.80;90.70;;;22.01;54.08;98510.75;4936130;28;119319;-92
2023/09/16 02:07:19;;;;;;;;;;;21.80;90.80;;;22.02;54.58;98511.56;4951503;28;118532;-91
2023/09/16 02:09:45;;;;;;;;;;;21.70;90.80;;;21.98;54.37;98511.56;4937915;28;124243;-90
2023/09/16 02:12:14;;;;;;;;;;;21.70;90.90;;;21.98;54.50;98513.56;4925293;28;125180;-90
2023/09/16 02:14:40;;;;;;;;;;;21.70;91.00;;;21.95;54.69;98509.53;4934989;28;119206;-90
2023/09/16 02:17:10;;;;;;;;;;;21.70;91.10;;;21.91;54.57;98505.88;4946166;28;118579;-91
2023/09/16 02:19:37;;;;;;;;;;;21.70;91.20;;;21.90;54.56;98511.94;4930073;28;123958;-90
2023/09/16 02:22:03;;;;;;;;;;;21.70;91.20;;;21.89;54.58;98516.72;4945003;28;125305;-91
2023/09/16 02:24:30;;;;;;;;;;;21.60;91.30;;;21.89;54.78;98518.72;4956879;28;120200;-90
2023/09/16 02:26:59;;;;;;;;;;;21.60;91.30;;;21.85;54.83;98521.53;4947057;28;120137;-91
2023/09/16 02:29:25;;;;;;;;;;;21.60;91.40;;;21.84;54.95;98525.53;4939781;28;124441;-90
2023/09/16 02:31:52;;;;;;;;;;;21.60;91.40;;;21.82;54.80;98530.78;4927993;28;124329;-91
2023/09/16 02:34:18;;;;;;;;;;;21.50;91.40;;;21.81;55.26;98517.88;4951969;28;118815;-92
2023/09/16 02:36:45;;;;;;;;;;;21.60;91.50;;;21.80;54.71;98524.72;4945437;28;118598;-91
2023/09/16 02:39:12;;;;;;;;;;;21.50;91.50;;;21.77;55.00;98525.53;4940874;28;124039;-91
2023/09/16 02:41:39;;;;;;;;;;;21.50;91.50;;;21.77;55.18;98533.97;4929825;28;123138;-90
2023/09/16 02:44:07;;;;;;;;;;;21.50;91.60;;;21.73;54.94;98527.50;4932808;28;119219;-92
2023/09/16 02:46:33;;;;;;;;;;;21.50;91.60;;;21.71;55.13;98524.25;4961332;28;119049;-91
2023/09/16 02:49:02;;;;;;;;;;;21.50;91.60;;;21.69;54.89;98521.06;4944726;28;124316;-92
2023/09/16 02:51:31;;;;;;;;;;;21.50;91.60;;;21.66;54.78;98517.03;4943011;28;124722;-92
2023/09/16 02:53:57;;;;;;;;;;;21.40;91.60;;;21.65;55.12;98526.66;4948372;28;119423;-92
2023/09/16 02:56:23;;;;;;;;;;;21.40;91.60;;;21.65;55.01;98523.03;4932214;28;118161;-92
2023/09/16 02:58:49;;;;;;;;;;;21.40;91.70;;;21.62;55.04;98525.44;4946176;28;124226;-91
2023/09/16 03:01:15;;;;;;;;;;;21.40;91.70;;;21.60;55.21;98527.84;4928707;28;123822;-91
2023/09/16 03:03:44;;;;;;;;;;;21.30;91.70;;;21.57;54.99;98523.00;4926263;28;119405;-91
2023/09/16 03:06:10;;;;;;;;;;;21.30;91.70;;;21.57;55.39;98530.63;4926628;28;118295;-92
2023/09/16 03:08:36;;;;;;;;;;;21.30;91.70;;;21.52;55.38;98526.19;4926650;28;124396;-90
2023/09/16 03:11:04;;;;;;;;;;;21.30;91.70;;;21.45;55.38;98523.34;4911517;28;122836;-91
2023/09/16 03:13:30;;;;;;;;;;;21.30;91.80;;;21.39;55.83;98527.72;4946521;28;118851;-90
2023/09/16 03:16:22;;;;;;;;;;;21.20;91.80;;;21.33;55.48;98526.41;4929928;28;119558;-90
2023/09/16 03:18:50;;;;;;;;;;;21.20;91.80;;;21.28;56.13;98513.56;4920514;28;123963;-90
2023/09/16 03:21:20;;;;;;;;;;;21.10;91.90;;;21.22;55.90;98514.31;4922780;28;123066;-91
2023/09/16 03:23:47;;;;;;;;;;;21.10;92.00;;;21.18;55.94;98514.28;4939390;28;119560;-91
2023/09/16 03:26:15;;;;;;;;;;;21.00;92.10;;;21.11;56.71;98515.03;4940307;28;118757;-90
2023/09/16 03:28:45;;;;;;;;;;;21.00;92.40;;;21.03;57.10;98506.94;4933002;28;124937;-90
2023/09/16 03:31:13;;;;;;;;;;;20.90;92.50;;;20.93;57.38;98508.50;4929437;28;124120;-92
2023/09/16 03:33:40;;;;;;;;;;;20.80;92.70;;;20.86;57.35;98512.03;4950958;28;119514;-91
2023/09/16 03:36:06;;;;;;;;;;;20.70;92.80;;;20.83;57.61;98510.00;4929217;28;118550;-91
2023/09/16 03:38:34;;;;;;;;;;;20.70;92.90;;;20.79;58.04;98511.16;4945627;28;124263;-91
2023/09/16 03:41:00;;;;;;;;;;;20.60;93.10;;;20.72;58.21;98514.72;4918684;28;124053;-91
2023/09/16 03:43:27;;;;;;;;;;;20.60;93.20;;;20.68;57.94;98503.44;4946210;28;118518;-92
2023/09/16 03:45:53;;;;;;;;;;;20.60;93.30;;;20.67;58.23;98507.47;4934733;28;119051;-93
2023/09/16 03:48:20;;;;;;;;;;;20.50;93.40;;;20.62;58.66;98493.78;4931830;28;123889;-90
2023/09/16 03:50:46;;;;;;;;;;;20.50;93.60;;;20.55;58.67;98504.94;4929148;28;123275;-91
2023/09/16 03:53:13;;;;;;;;;;;20.40;93.70;;;20.47;58.89;98501.25;4930451;28;119721;-92
2023/09/16 03:55:39;;;;;;;;;;;20.40;93.80;;;20.41;59.27;98505.56;4945072;28;118818;-90
2023/09/16 03:58:05;;;;;;;;;;;20.30;93.80;;;20.37;59.31;98487.91;4928558;28;124179;-91
2023/09/16 04:00:32;;;;;;;;;;;20.20;94.00;;;20.33;59.75;98500.28;4915610;28;124631;-92
2023/09/16 04:02:58;;;;;;;;;;;20.20;94.20;;;20.25;59.83;98493.78;4956036;28;119602;-92
2023/09/16 04:05:25;;;;;;;;;;;20.10;94.40;;;20.16;60.69;98480.06;4927880;28;118813;-92
2023/09/16 04:07:52;;;;;;;;;;;20.10;94.70;;;20.05;60.97;98479.94;4942917;28;124207;-92
2023/09/16 04:10:18;;;;;;;;;;;20.00;95.00;;;19.92;61.13;98484.22;4926763;28;123979;-90
2023/09/16 04:12:44;;;;;;;;;;;19.90;95.10;;;19.84;61.35;98488.91;4926192;28;119333;-91
2023/09/16 04:15:11;;;;;;;;;;;19.80;95.10;;;19.80;61.30;98493.69;4931790;28;118453;-91
2023/09/16 04:17:39;;;;;;;;;;;19.80;95.20;;;19.79;61.56;98494.06;4929825;28;124119;-91
2023/09/16 04:20:10;;;;;;;;;;;19.70;95.20;;;19.80;61.40;98490.88;4928588;28;123954;-92
2023/09/16 04:22:36;;;;;;;;;;;19.70;95.30;;;19.80;61.17;98502.09;4944441;28;119505;-90
2023/09/16 04:25:03;;;;;;;;;;;19.70;95.30;;;19.81;61.64;98502.91;4930481;28;118989;-91
2023/09/16 04:27:29;;;;;;;;;;;19.70;95.40;;;19.84;61.36;98508.53;4925672;28;123515;-92
2023/09/16 04:29:55;;;;;;;;;;;19.70;95.40;;;19.90;61.35;98491.38;4944786;28;124083;-91
2023/09/16 04:32:21;;;;;;;;;;;19.70;95.40;;;19.95;60.93;98494.66;4947757;28;119047;-92
2023/09/16 04:34:50;;;;;;;;;;;19.70;95.40;;;20.00;60.79;98491.50;4905437;28;118399;-91
2023/09/16 04:37:16;;;;;;;;;;;19.70;95.40;;;20.03;60.61;98490.75;4950288;28;124255;-90
2023/09/16 04:39:42;;;;;;;;;;;19.80;95.50;;;20.08;60.45;98478.38;4938371;28;123922;-91
2023/09/16 04:42:09;;;;;;;;;;;19.80;95.40;;;20.12;60.42;98487.63;4933002;28;119446;-90
2023/09/16 04:44:38;;;;;;;;;;;19.80;95.30;;;20.16;60.59;98476.47;4944136;28;119288;-90
2023/09/16 04:47:10;;;;;;;;;;;19.90;95.40;;;20.17;60.06;98484.47;4929521;28;124803;-92
2023/09/16 04:49:36;;;;;;;;;;;19.90;95.30;;;20.22;60.38;98474.91;4945184;28;123869;-91
2023/09/16 04:52:04;;;;;;;;;;;19.90;95.30;;;20.24;60.25;98478.94;4950105;28;121219;-91
2023/09/16 04:54:35;;;;;;;;;;;19.90;95.30;;;20.25;59.62;98477.75;4934639;28;119902;-91
2023/09/16 04:57:02;;;;;;;;;;;19.90;95.30;;;20.28;60.11;98479.81;4910475;28;123940;-92
2023/09/16 04:59:32;;;;;;;;;;;20.00;95.30;;;20.28;59.91;98484.59;4933141;28;122980;-91
2023/09/16 05:01:59;;;;;;;;;;;20.00;95.30;;;20.24;60.76;98473.34;4927950;28;120198;-91
2023/09/16 05:04:26;;;;;;;;;;;20.00;95.50;;;20.14;60.71;98476.84;4918824;28;117819;-91
2023/09/16 05:06:55;;;;;;;;;;;19.90;95.50;;;20.08;60.55;98476.38;4959114;28;124078;-91
2023/09/16 05:09:22;;;;;;;;;;;19.80;95.40;;;20.03;61.08;98487.13;4947083;28;123595;-90
2023/09/16 05:11:48;;;;;;;;;;;19.80;95.60;;;19.98;61.17;98487.47;4934008;28;119468;-93
2023/09/16 05:14:15;;;;;;;;;;;19.80;95.70;;;19.97;61.48;98492.28;4941653;28;119063;-92
2023/09/16 05:16:41;;;;;;;;;;;19.80;95.70;;;20.00;61.30;98479.50;4934195;28;124252;-92
2023/09/16 05:19:08;;;;;;;;;;;19.80;95.80;;;20.05;60.88;98479.94;4935337;28;124231;-91
2023/09/16 05:21:34;;;;;;;;;;;19.80;95.80;;;20.11;60.58;98474.81;4953355;28;120393;-92
2023/09/16 05:24:00;;;;;;;;;;;19.80;95.80;;;20.17;60.73;98476.06;4955307;28;119579;-91
2023/09/16 05:26:27;;;;;;;;;;;19.80;95.80;;;20.22;60.69;98477.72;4940702;28;124263;-91
2023/09/16 05:28:53;;;;;;;;;;;19.90;95.80;;;20.25;60.37;98479.75;4924920;28;122721;-91
2023/09/16 05:31:20;;;;;;;;;;;19.90;95.70;;;20.27;60.40;98471.75;4928365;28;121616;-91
2023/09/16 05:33:46;;;;;;;;;;;19.90;95.70;;;20.30;60.30;98473.78;4928782;28;118713;-93
2023/09/16 05:36:15;;;;;;;;;;;19.90;95.70;;;20.33;60.46;98470.22;4928953;28;123807;-93
2023/09/16 05:38:43;;;;;;;;;;;20.00;95.70;;;20.38;60.44;98474.69;4933070;28;123430;-92
2023/09/16 05:41:10;;;;;;;;;;;20.00;95.70;;;20.39;60.09;98473.47;4927772;28;120363;-91
2023/09/16 05:43:36;;;;;;;;;;;20.10;95.60;;;20.39;59.77;98479.09;4960032;28;118680;-91
2023/09/16 05:46:02;;;;;;;;;;;20.00;95.50;;;20.40;59.73;98477.91;4932968;28;124295;-91
2023/09/16 05:48:32;;;;;;;;;;;20.00;95.50;;;20.39;59.67;98481.88;4905166;28;122961;-91
2023/09/16 05:51:00;;;;;;;;;;;20.10;95.40;;;20.35;60.07;98484.66;4935746;28;118769;-93
2023/09/16 05:53:30;;;;;;;;;;;20.10;95.30;;;20.35;59.80;98483.88;4929567;28;117803;-88
2023/09/16 05:55:57;;;;;;;;;;;20.10;95.30;;;20.33;60.02;98483.44;4950180;28;123393;-90
2023/09/16 05:58:23;;;;;;;;;;;20.10;95.30;;;20.33;60.27;98483.44;4917775;28;123940;-89
2023/09/16 06:00:54;;;;;;;;;;;20.10;95.30;;;20.37;59.76;98475.88;4935559;28;119431;-90
2023/09/16 06:03:21;;;;;;;;;;;20.10;95.40;;;20.38;59.92;98474.69;4941698;28;118814;-91
2023/09/16 06:05:47;;;;;;;;;;;20.10;95.50;;;20.40;59.84;98475.09;4947623;28;123951;-93
2023/09/16 06:08:16;;;;;;;;;;;20.10;95.50;;;20.45;60.08;98474.75;4928872;28;124075;-91
2023/09/16 06:10:42;;;;;;;;;;;20.10;95.50;;;20.54;59.74;98475.25;4922896;28;119675;-92
2023/09/16 06:13:10;;;;;;;;;;;20.20;95.50;;;20.65;59.76;98480.97;4937809;28;118082;-91
2023/09/16 06:15:36;;;;;;;;;;;20.30;95.50;;;20.76;59.20;98481.06;4937544;28;124445;-91
2023/09/16 06:18:05;;;;;;;;;;;20.30;95.60;;;20.86;59.21;98471.91;4936772;28;124851;-86
2023/09/16 06:20:31;;;;;;;;;;;20.40;95.60;;;20.99;59.15;98484.47;4927978;28;119496;-85
2023/09/16 06:23:02;;;;;;;;;;;20.50;95.70;;;21.10;58.78;98484.53;4921972;28;118761;-83
2023/09/16 06:25:29;;;;;;;;;;;20.50;95.60;;;21.17;58.87;98482.59;4932428;28;124113;-85
2023/09/16 06:27:58;;;;;;;;;;;20.60;95.50;;;21.24;58.48;98489.44;4932877;28;123742;-86
2023/09/16 06:30:24;;;;;;;;;;;20.70;95.40;;;21.34;58.42;98474.66;4929985;28;120843;-85
2023/09/16 06:32:53;;;;;;;;;;;20.80;95.40;;;21.49;58.33;98475.56;4929856;28;120450;-86
2023/09/16 06:35:20;;;;;;;;;;;20.90;95.40;;;21.58;57.91;98482.44;4928910;28;124299;-84
2023/09/16 06:37:46;;;;;;;;;;;21.00;95.30;;;21.65;57.82;98483.66;4935869;28;124565;-84
2023/09/16 06:40:12;;;;;;;;;;;21.10;95.20;;;21.69;57.84;98481.69;4943626;28;119549;-86
2023/09/16 06:42:39;;;;;;;;;;;21.10;95.10;;;21.75;57.71;98475.28;4928102;28;118448;-85
2023/09/16 06:45:05;;;;;;;;;;;21.20;95.00;;;21.88;57.27;98472.94;4959495;28;123287;-85
2023/09/16 06:47:32;;;;;;;;;;;21.30;95.00;;;21.95;57.23;98466.50;4938866;28;123902;-85
2023/09/16 06:49:59;;;;;;;;;;;21.40;94.90;;;22.05;57.10;98477.78;4931195;28;119462;-85
2023/09/16 06:52:27;;;;;;;;;;;21.40;94.80;;;22.14;56.31;98473.78;4910986;28;118853;-85
2023/09/16 06:54:56;;;;;;;;;;;21.50;94.60;;;22.18;56.40;98472.63;4939919;28;124294;-83
2023/09/16 06:57:22;;;;;;;;;;;21.60;94.60;;;22.21;56.22;98474.66;4937591;28;123998;-85
2023/09/16 06:59:49;;;;;;;;;;;21.60;94.40;;;22.26;55.88;98468.63;4920656;28;118462;-86
2023/09/16 07:02:16;;;;;;;;;;;21.70;94.30;;;22.33;56.02;98464.25;4913116;28;118915;-85
2023/09/16 07:04:42;;;;;;;;;;;21.70;94.30;;;22.44;55.78;98465.84;4918331;28;124252;-84
2023/09/16 07:07:09;;;;;;;;;;;21.80;94.20;;;22.57;55.57;98471.09;4917758;28;123896;-84
2023/09/16 07:09:35;;;;;;;;;;;21.90;94.20;;;22.65;55.33;98472.72;4956877;28;119379;-84
2023/09/16 07:12:02;;;;;;;;;;;22.00;94.10;;;22.69;55.15;98476.34;4933486;28;119095;-85
2023/09/16 07:14:28;;;;;;;;;;;22.10;94.00;;;22.71;55.04;98480.34;4939358;28;125417;-85
2023/09/16 07:16:55;;;;;;;;;;;22.10;93.80;;;22.73;54.98;98479.97;4933246;28;123762;-86
2023/09/16 07:19:21;;;;;;;;;;;22.10;93.70;;;22.74;55.04;98483.59;4927066;28;120693;-85
2023/09/16 07:21:47;;;;;;;;;;;22.20;93.70;;;22.74;54.90;98478.75;4928294;28;119562;-85
2023/09/16 07:24:16;;;;;;;;;;;22.20;93.60;;;22.76;54.79;98476.34;4930124;28;123635;-85
2023/09/16 07:26:45;;;;;;;;;;;22.20;93.60;;;22.79;54.82;98475.53;4932769;28;124213;-86
2023/09/16 07:29:13;;;;;;;;;;;22.20;93.60;;;22.82;54.89;98480.34;4953143;28;119566;-84
2023/09/16 07:31:40;;;;;;;;;;;22.20;93.60;;;22.85;54.97;98476.72;4941513;28;118769;-82
2023/09/16 07:34:06;;;;;;;;;;;22.30;93.60;;;22.90;54.79;98479.16;4944787;28;124337;-82
2023/09/16 07:36:32;;;;;;;;;;;22.30;93.50;;;22.92;54.58;98479.56;4943582;28;123929;-82
2023/09/16 07:38:59;;;;;;;;;;;22.40;93.50;;;23.00;54.60;98477.56;4925815;28;119424;-83
2023/09/16 07:41:25;;;;;;;;;;;22.40;93.50;;;23.06;54.26;98477.97;4939468;28;118946;-82
2023/09/16 07:43:52;;;;;;;;;;;22.50;93.40;;;23.06;54.41;98478.78;4922225;28;124328;-82
2023/09/16 07:46:18;;;;;;;;;;;22.50;93.30;;;23.05;54.35;98473.53;4929152;28;123910;-82
2023/09/16 07:48:44;;;;;;;;;;;22.50;93.30;;;23.09;54.39;98466.69;4956643;28;119660;-82
2023/09/16 07:51:13;;;;;;;;;;;22.60;93.30;;;23.14;54.34;98468.28;4935237;28;119235;-82
2023/09/16 07:53:39;;;;;;;;;;;22.60;93.30;;;23.20;54.30;98471.50;4933325;28;123330;-83
2023/09/16 07:56:06;;;;;;;;;;;22.70;93.30;;;23.24;54.35;98473.13;4951050;28;123900;-82
2023/09/16 07:58:32;;;;;;;;;;;22.70;93.20;;;23.30;54.07;98473.50;4928758;28;120081;-85
2023/09/16 08:00:58;;;;;;;;;;;22.80;93.20;;;23.37;54.06;98479.94;4937101;28;117896;-84
2023/09/16 08:03:24;;;;;;;;;;;22.90;93.30;;;23.48;53.89;98481.91;4932985;28;124316;-83
2023/09/16 08:05:53;;;;;;;;;;;22.90;93.30;;;23.57;53.86;98490.75;4945157;28;124252;-84
2023/09/16 08:08:22;;;;;;;;;;;23.00;93.20;;;23.67;53.72;98489.91;4929728;28;120648;-82
2023/09/16 08:10:50;;;;;;;;;;;23.10;93.10;;;23.76;53.54;98483.88;4930435;28;119666;-83
2023/09/16 08:13:18;;;;;;;;;;;23.20;93.10;;;23.85;53.24;98478.56;4946345;28;123614;-86
2023/09/16 08:15:44;;;;;;;;;;;23.30;93.00;;;23.95;53.37;98488.22;4942481;28;124651;-82
2023/09/16 08:18:13;;;;;;;;;;;23.40;93.00;;;24.05;53.06;98481.72;4920067;28;119195;-82
2023/09/16 08:20:41;;;;;;;;;;;23.50;93.00;;;24.15;52.56;98485.69;4929944;28;118601;-83
2023/09/16 08:23:09;;;;;;;;;;;23.50;92.80;;;24.18;52.76;98485.69;4946202;28;124369;-82
2023/09/16 08:25:35;;;;;;;;;;;23.60;92.70;;;24.21;52.43;98487.69;4924430;28;123762;-82
2023/09/16 08:28:02;;;;;;;;;;;23.60;92.60;;;24.24;52.40;98488.88;4941405;28;119468;-84
2023/09/16 08:30:28;;;;;;;;;;;23.70;92.60;;;24.32;52.61;98498.13;4936557;28;118835;-85
2023/09/16 08:32:54;;;;;;;;;;;23.70;92.60;;;24.40;52.47;98496.84;4941820;28;123492;-80
2023/09/16 08:35:24;;;;;;;;;;;23.80;92.50;;;24.46;52.34;98504.50;4932085;28;122752;-84
2023/09/16 08:37:51;;;;;;;;;;;23.90;92.40;;;24.50;52.19;98506.50;4942541;28;119363;-82
2023/09/16 08:40:20;;;;;;;;;;;23.90;92.30;;;24.55;52.01;98497.59;4954802;28;119084;-82
2023/09/16 08:43:18;;;;;;;;;;;24.00;92.30;;;24.57;51.73;98495.94;4945463;28;124351;-85
2023/09/16 08:45:51;;;;;;;;;;;24.00;92.20;;;24.66;52.04;98501.97;4918694;28;123691;-82
2023/09/16 08:48:20;;;;;;;;;;;24.10;92.50;;;24.76;51.50;98499.44;4954673;28;120270;-82
2023/09/16 08:50:50;;;;;;;;;;;24.20;92.20;;;24.84;51.65;98498.97;4941948;28;118580;-81
2023/09/16 08:53:18;;;;;;;;;;;24.30;92.10;;;24.91;51.07;98495.31;4922785;28;124615;-82
2023/09/16 08:55:48;;;;;;;;;;;24.30;91.90;;;24.96;51.34;98503.34;4947108;28;124865;-83
2023/09/16 08:58:14;;;;;;;;;;;24.40;91.80;;;24.98;50.97;98505.72;4927388;28;120665;-83
2023/09/16 09:00:41;;;;;;;;;;;24.40;91.80;;;25.01;50.93;98496.41;4938238;28;119585;-82
2023/09/16 09:03:07;;;;;;;;;;;24.50;91.70;;;25.03;51.20;98500.44;4957318;28;124304;-84
2023/09/16 09:05:35;;;;;;;;;;;24.50;91.60;;;25.08;50.67;98497.16;4913998;28;124451;-83
2023/09/16 09:08:02;;;;;;;;;;;24.60;91.50;;;25.08;50.94;98488.69;4929036;28;118573;-83
2023/09/16 09:10:28;;;;;;;;;;;24.60;91.40;;;25.09;50.63;98495.97;4950820;28;118525;-84
2023/09/16 09:12:57;;;;;;;;;;;24.70;91.30;;;25.11;50.49;98496.31;4940861;28;123851;-80
2023/09/16 09:15:24;;;;;;;;;;;24.70;91.30;;;25.13;50.47;98496.72;4960952;28;124129;-83
2023/09/16 09:17:54;;;;;;;;;;;24.70;91.20;;;25.17;50.43;98487.41;4943713;28;119595;-83
2023/09/16 09:20:26;;;;;;;;;;;24.70;91.20;;;25.24;50.51;98488.16;4957276;28;118481;-82
2023/09/16 09:22:53;;;;;;;;;;;24.70;91.20;;;25.29;50.61;98484.09;4928267;28;124206;-81
2023/09/16 09:25:23;;;;;;;;;;;24.80;91.10;;;25.30;49.72;98486.47;4937625;28;123081;-80
2023/09/16 09:27:52;;;;;;;;;;;24.80;90.90;;;25.33;49.99;98479.19;4935042;28;119300;-83
2023/09/16 09:30:26;;;;;;;;;;;24.80;90.80;;;25.35;49.64;98476.75;4943326;28;119465;-83
2023/09/16 09:32:56;;;;;;;;;;;24.90;90.80;;;25.38;49.73;98473.06;4932998;28;124930;-83
2023/09/16 09:35:27;;;;;;;;;;;24.90;90.80;;;25.42;50.04;98482.31;4916547;28;122998;-82
2023/09/16 09:37:54;;;;;;;;;;;25.00;90.80;;;25.48;49.83;98474.97;4934246;28;120787;-83
2023/09/16 09:40:24;;;;;;;;;;;25.00;90.70;;;25.52;49.82;98481.41;4914751;28;119035;-84
2023/09/16 09:42:55;;;;;;;;;;;25.10;90.70;;;25.61;49.25;98482.94;4910315;28;124069;-83
2023/09/16 09:45:23;;;;;;;;;;;25.10;90.60;;;25.67;49.31;98482.03;4943734;28;123736;-83
2023/09/16 09:47:51;;;;;;;;;;;25.20;90.40;;;25.72;49.52;98477.94;4928671;28;120538;-83
2023/09/16 09:50:22;;;;;;;;;;;25.20;90.40;;;25.78;49.11;98479.88;4930612;28;118038;-83
2023/09/16 09:52:54;;;;;;;;;;;25.30;90.30;;;25.85;49.12;98483.91;4928628;28;124239;-82
2023/09/16 09:55:25;;;;;;;;;;;25.30;90.20;;;25.90;48.44;98489.06;4917667;28;123700;-81
2023/09/16 09:57:52;;;;;;;;;;;25.40;90.10;;;25.94;48.56;98498.31;4942349;28;119519;-80
2023/09/16 10:00:20;;;;;;;;;;;25.40;90.00;;;25.95;48.45;98492.25;4946169;28;118897;-80
2023/09/16 10:02:48;;;;;;;;;;;25.50;89.50;;;25.95;47.61;98489.44;4925371;28;123187;-83
2023/09/16 10:05:19;;;;;;;;;;;25.50;88.70;;;25.96;47.25;98487.38;4953082;28;123989;-83
2023/09/16 10:07:46;;;;;;;;;;;25.50;88.00;;;25.94;46.80;98479.31;4943262;28;119544;-83
2023/09/16 10:10:21;;;;;;;;;;;25.50;87.60;;;25.95;46.51;98472.44;4915274;28;118606;-82
2023/09/16 10:12:55;;;;;;;;;;;25.50;86.80;;;25.97;46.96;98475.63;4950711;28;124546;-81
2023/09/16 10:15:31;;;;;;;;;;;25.50;86.80;;;26.02;46.97;98477.19;4951909;28;123619;-82
2023/09/16 10:17:57;;;;;;;;;;;25.60;87.00;;;26.08;47.15;98471.84;4955539;28;119580;-83
2023/09/16 10:20:24;;;;;;;;;;;25.60;87.30;;;26.12;46.73;98469.78;4936342;28;118670;-83
2023/09/16 10:22:51;;;;;;;;;;;25.70;87.10;;;26.16;46.30;98473.38;4950305;28;123088;-82
2023/09/16 10:25:17;;;;;;;;;;;25.70;86.70;;;26.20;46.18;98469.25;4909832;28;124562;-83
2023/09/16 10:28:03;;;;;;;;;;;25.80;86.20;;;26.28;46.04;98467.13;4946654;28;118683;-83
2023/09/16 10:30:31;;;;;;;;;;;25.80;86.00;;;26.36;46.16;98477.13;4916662;28;118722;-82
2023/09/16 10:33:02;;;;;;;;;;;25.90;85.90;;;26.43;46.32;98470.53;4951873;28;124125;-82
2023/09/16 10:35:33;;;;;;;;;;;25.90;85.90;;;26.51;45.88;98465.56;4928726;28;123152;-81
2023/09/16 10:38:01;;;;;;;;;;;26.00;85.40;;;26.61;45.27;98464.63;4924690;28;119158;-81
2023/09/16 10:40:29;;;;;;;;;;;25.70;84.90;;;26.70;45.29;98464.09;4906192;28;119458;-83
2023/09/16 10:42:57;;;;;;;;;;;26.20;85.20;;;26.82;45.42;98457.81;4943196;28;124260;-81
2023/09/16 10:45:26;;;;;;;;;;;26.30;84.90;;;26.92;44.42;98456.03;4939358;28;124407;-81
2023/09/16 10:47:53;;;;;;;;;;;26.40;83.80;;;27.03;43.80;98462.34;4950826;28;119447;-82
2023/09/16 10:50:29;;;;;;;;;;;26.40;82.80;;;27.08;43.55;98464.66;4924578;28;117192;-82
2023/09/16 10:53:05;;;;;;;;;;;26.50;82.20;;;27.14;42.84;98468.63;4920340;28;124830;-81
2023/09/16 10:55:37;;;;;;;;;;;26.60;81.30;;;27.20;42.87;98468.94;4919899;28;124231;-82
2023/09/16 10:58:09;;;;;;;;;;;26.70;81.10;;;27.30;42.69;98462.28;4925996;28;119441;-84
2023/09/16 11:00:39;;;;;;;;;;;26.80;81.30;;;27.43;42.89;98454.72;4948525;28;118105;-84
2023/09/16 11:03:12;;;;;;;;;;;26.90;80.50;;;27.55;41.64;98458.94;4919883;28;124360;-84
2023/09/16 11:05:38;;;;;;;;;;;27.00;79.00;;;27.67;40.86;98449.78;4920181;28;123691;-82
2023/09/16 11:08:05;;;;;;;;;;;27.10;77.80;;;27.77;39.63;98445.91;4932474;28;119565;-83
2023/09/16 11:10:31;;;;;;;;;;;27.20;75.80;;;27.87;39.20;98446.97;4919719;28;118058;-83
2023/09/16 11:12:58;;;;;;;;;;;27.30;74.90;;;27.95;39.56;98447.63;4925316;28;124197;-85